Pagrindinis puslapis
METAR-TAF:

METAR-TAF

Oro uostai :

Simferopolis, Rusija

platuma: 45-03-08N, ilguma: 033-58-31E, Aukštis: 195 m

Dabartinis oras

Ataskaita buvo paskelbta 30 minutes, ne 12:00 UTC
Vėjas 14 kt iš Vakarų/Pietvakarių, svyruoja nuo Pietvakarių ir Vakarų
Temperatūra 21°C
Drėgmė 35%
Slėgis 1012 hPa
Matomumas 10 km arba daugiau
nėra debesų žemiau 1500 m ir nėra kamuolinių lietaus debesų

METAR: URFF 041200Z 25007MPS 220V280 CAVOK 21/05 Q1012 R19/090095 NOSIG

Laikas: 15:30 (12:30 UTC)

Prognozė

Ataskaita buvo paskelbta 1 valandą ir 36 minutes, ne 10:54 UTC
Prognozė galioja nuo 04 metu 12 UTC su 05 metu 12 UTC
Vėjas 14 kt iš Vakarų/Pietvakarių su gūsio iki 25 kt
Matomumas 10 km arba daugiau
Išsisklaidę debesys ne aukštis 3000 ft, Liūtiniai kamuoliniai debesys.
Tapsmas
nuo 04 metu 18 UTC su 04 metu 20 UTC
Vėjas 6 kt iš Pietų
Tapsmas
nuo 05 metu 06 UTC su 05 metu 08 UTC
Vėjas 14 kt iš Pietvakarių su gūsio iki 25 kt

TAF: URFF 041054Z 0412/0512 25007G13MPS 9999 SCT030CB TX20/0412Z TN10/0501Z BECMG 0418/0420 17003MPS BECMG 0506/0508 23007G13MPS

Orai ataskaitas ir orų prognozės (METAR, TAF).

turimą stotys yra geltonos ir raudonos taškus žemėlapyje.

Perkelti pele per norėdami pamatyti stoties vardą.

Tada spustelėkite, norėdami matyti oro stebėjimo ir prognozės.

Norėdami pakeisti žemėlapį: spustelėkite ant žalios mygtukų su juodo kryžiaus žemyn,; žalią mygtuką su brūkšneliu, jei norite nutolinti; arba žalių rodyklių gretimoms žemėlapius.


METAR-TAF: